»·PEaware :: N982YR KEUG-KOTH

N982YR :: KEUG-KOTH

FLIGHT INFORMATION

Flight Status: Arrived
Operator: Privately registered:
United States
More flights under this callsign
Pilot: Anonymous 15639 (15639)
Aircraft: CESSNA 172 SKYHAWK
(C172)
More flights by this aircraft type
Origin: KEUG Mahlon Sweet
United States
Destination: KOTH North Bend Mun
United States
More flights between these airports :: More routes between these airports
Route: +EUG9 EUG V121 OTH
File this flight plan on PilotEdge
Remarks:
Altitude:
(Current/Filed)
6,000ft
Speed:
(Current/Filed)
115kts
Departed: 29-Aug-18 09:45 AM
Arrived: 29-Aug-18 10:45 AM
Distance/Time
Traveled:
61nm/0:59
Distance/Time
To Go:
Arrived

Flight Plot

Page will automatically refresh every two minutes.

Flight plan parsing failed; only flown route is shown


Map Options




Map Legend


Flown Route
Filed Route
Departure Airport
Arrival Airport
Navaid (VOR, NDB)
Fix

Horizontal Profiles

Position Reports

Time Latitude Longitude Heading Altitude Ground
Speed
29-Aug-18 09:27 44.121045 -123.212889 267 378ft 0kts
29-Aug-18 09:28 44.121045 -123.212889 267 378ft 0kts
29-Aug-18 09:29 44.121045 -123.212889 267 378ft 0kts
29-Aug-18 09:30 44.121045 -123.212889 267 378ft 0kts
29-Aug-18 09:31 44.121045 -123.212889 267 378ft 0kts
29-Aug-18 09:32 44.121045 -123.212889 267 378ft 0kts
29-Aug-18 09:33 44.121045 -123.212889 267 378ft 0kts
29-Aug-18 09:34 44.121045 -123.212889 267 378ft 0kts
29-Aug-18 09:35 44.121045 -123.212889 267 378ft 0kts
29-Aug-18 09:36 44.121045 -123.212889 267 378ft 0kts
29-Aug-18 09:37 44.121045 -123.212889 267 378ft 0kts
29-Aug-18 09:38 44.120969 -123.213430 275 378ft 0kts
29-Aug-18 09:39 44.120969 -123.213430 275 378ft 0kts
29-Aug-18 09:40 44.120969 -123.213430 275 378ft 0kts
29-Aug-18 09:41 44.120969 -123.213430 275 378ft 0kts
29-Aug-18 09:42 44.122205 -123.215165 328 378ft 17kts
29-Aug-18 09:43 44.126247 -123.217109 0 378ft 16kts
29-Aug-18 09:44 44.131526 -123.217169 359 378ft 19kts
29-Aug-18 09:45 44.135325 -123.217576 280 378ft 7kts
29-Aug-18 09:46 44.129292 -123.219029 180 503ft 57kts
29-Aug-18 09:47 44.112078 -123.217650 180 1173ft 66kts
29-Aug-18 09:48 44.093236 -123.215705 177 1797ft 75kts
29-Aug-18 09:49 44.071772 -123.213357 179 2241ft 79kts
29-Aug-18 09:50 44.049399 -123.211559 177 2634ft 81kts
29-Aug-18 09:51 44.037279 -123.227482 301 3026ft 88kts
29-Aug-18 09:52 44.061730 -123.234001 357 3536ft 94kts
29-Aug-18 09:53 44.088597 -123.234924 357 3996ft 99kts
29-Aug-18 09:54 44.116349 -123.236141 354 4415ft 101kts
29-Aug-18 09:55 44.144389 -123.237623 354 4817ft 101kts
29-Aug-18 09:56 44.172652 -123.239015 354 5226ft 102kts
29-Aug-18 09:57 44.180829 -123.213224 153 5599ft 98kts
29-Aug-18 09:58 44.154804 -123.215610 191 5959ft 95kts
29-Aug-18 09:59 44.125622 -123.221639 194 5998ft 112kts
29-Aug-18 10:00 44.102319 -123.248671 224 5999ft 109kts
29-Aug-18 10:01 44.080421 -123.277987 225 5999ft 109kts
29-Aug-18 10:02 44.058711 -123.307378 225 5999ft 108kts
29-Aug-18 10:03 44.037144 -123.336645 225 5999ft 108kts
29-Aug-18 10:04 44.015625 -123.365846 225 5998ft 108kts
29-Aug-18 10:05 43.994186 -123.394917 225 5998ft 108kts
29-Aug-18 10:06 43.972619 -123.424136 225 5998ft 108kts
29-Aug-18 10:07 43.951140 -123.453204 225 5998ft 108kts
29-Aug-18 10:08 43.929564 -123.482376 225 5998ft 108kts
29-Aug-18 10:09 43.908048 -123.511436 225 5998ft 108kts
29-Aug-18 10:10 43.886618 -123.540345 225 5999ft 108kts
29-Aug-18 10:11 43.864969 -123.569366 225 5999ft 108kts
29-Aug-18 10:12 43.843422 -123.598475 225 5999ft 108kts
29-Aug-18 10:13 43.821819 -123.627554 226 6006ft 109kts
29-Aug-18 10:14 43.799894 -123.657022 225 6016ft 111kts
29-Aug-18 10:15 43.777479 -123.687116 225 6025ft 113kts
29-Aug-18 10:16 43.754745 -123.717597 225 6034ft 114kts
29-Aug-18 10:17 43.731792 -123.748352 225 6043ft 115kts
29-Aug-18 10:18 43.708703 -123.779147 225 6053ft 115kts
29-Aug-18 10:19 43.685609 -123.810001 225 6062ft 116kts
29-Aug-18 10:20 43.662282 -123.841133 225 6072ft 116kts
29-Aug-18 10:21 43.638938 -123.872260 225 6073ft 117kts
29-Aug-18 10:22 43.619465 -123.898198 225 6073ft 117kts
29-Aug-18 10:23 43.592189 -123.934490 225 6073ft 117kts
29-Aug-18 10:24 43.568786 -123.965590 225 6073ft 117kts
29-Aug-18 10:25 43.549266 -123.991504 225 6073ft 117kts
29-Aug-18 10:26 43.525853 -124.022551 225 6073ft 117kts
29-Aug-18 10:27 43.498425 -124.058915 225 5964ft 118kts
29-Aug-18 10:28 43.478629 -124.085163 225 5630ft 119kts
29-Aug-18 10:29 43.454445 -124.117134 224 5232ft 122kts
29-Aug-18 10:30 43.429683 -124.149835 224 4742ft 125kts
29-Aug-18 10:31 43.403063 -124.181010 216 4098ft 126kts
29-Aug-18 10:32 43.374768 -124.209264 216 3453ft 124kts
29-Aug-18 10:33 43.346993 -124.236985 216 2818ft 123kts
29-Aug-18 10:34 43.319851 -124.263985 216 2580ft 118kts
29-Aug-18 10:35 43.293078 -124.290624 216 2580ft 118kts
29-Aug-18 10:36 43.274087 -124.326548 253 2577ft 118kts
29-Aug-18 10:37 43.275071 -124.370241 290 2477ft 112kts
29-Aug-18 10:38 43.293664 -124.403090 325 2443ft 111kts
29-Aug-18 10:39 43.322681 -124.415259 0 2265ft 112kts
29-Aug-18 10:40 43.352203 -124.401475 37 2082ft 114kts
29-Aug-18 10:41 43.370571 -124.368363 61 1774ft 99kts
29-Aug-18 10:42 43.383409 -124.336907 60 1284ft 91kts
29-Aug-18 10:43 43.395234 -124.308127 60 821ft 81kts
29-Aug-18 10:44 43.406099 -124.281621 60 408ft 77kts
29-Aug-18 10:45 43.416264 -124.256869 60 23ft 63kts
29-Aug-18 10:46 43.417708 -124.250265 62 21ft 9kts
29-Aug-18 10:47 43.418669 -124.246744 151 21ft 8kts
29-Aug-18 10:48 43.417424 -124.247172 151 21ft 0kts

Navigation Log

Ident Type
Flight plan parsing failed, navigation log unavailable